TKY87T UKOO-LRCK
Flight info
| Callsign | TKY87T |
|---|---|
| Flight time | 1h 6m |
| Altitude | 3000 |
| Route | 460410N0302822E 454135N0294746E/K0298F090 DCT BAGRI/N0163F100 DCT 445849N0291260E 444538N0285520E DCT 443328N0283344E |
| Aircraft | DHC6/L-SDFGR/C |
Departure
| Time | 2026-05-05 11:05 |
|---|---|
| Airport | Odesa International Airport (UKOO) |
Arrival
| Time | 2026-05-05 12:12 |
|---|---|
| Airport | Mihail Kogălniceanu International Airport (LRCK) |
| Time | Latitude | Longitude | Altitude | Speed | Heading |
|---|---|---|---|---|---|
| 2026-05-05 10:58 | 46.42669 | 30.67912 | 169 ft | 0 kts | 31° |
| 2026-05-05 11:03 | 46.42670 | 30.67913 | 171 ft | 1 kts | 31° |
| 2026-05-05 11:03 | 46.42697 | 30.67935 | 169 ft | 8 kts | 28° |
| 2026-05-05 11:03 | 46.42722 | 30.67952 | 169 ft | 6 kts | 12° |
| 2026-05-05 11:03 | 46.42727 | 30.67895 | 169 ft | 8 kts | 254° |
| 2026-05-05 11:04 | 46.42704 | 30.67799 | 169 ft | 12 kts | 249° |
| 2026-05-05 11:04 | 46.42682 | 30.67676 | 170 ft | 13 kts | 266° |
| 2026-05-05 11:04 | 46.42690 | 30.67650 | 170 ft | 0 kts | 334° |
| 2026-05-05 11:04 | 46.42697 | 30.67645 | 170 ft | 8 kts | 333° |
| 2026-05-05 11:05 | 46.43002 | 30.67508 | 170 ft | 81 kts | 345° |
| 2026-05-05 11:05 | 46.43678 | 30.67231 | 395 ft | 101 kts | 347° |
| 2026-05-05 11:05 | 46.44544 | 30.66906 | 997 ft | 95 kts | 348° |
| 2026-05-05 11:05 | 46.45199 | 30.66741 | 1199 ft | 112 kts | 8° |
| 2026-05-05 11:06 | 46.45738 | 30.66955 | 1300 ft | 121 kts | 31° |
| 2026-05-05 11:06 | 46.46060 | 30.68005 | 1527 ft | 127 kts | 96° |
| 2026-05-05 11:06 | 46.45911 | 30.69277 | 1814 ft | 125 kts | 97° |
| 2026-05-05 11:06 | 46.45710 | 30.70452 | 2163 ft | 124 kts | 124° |
| 2026-05-05 11:07 | 46.44898 | 30.70907 | 2387 ft | 137 kts | 190° |
| 2026-05-05 11:07 | 46.44193 | 30.70089 | 2770 ft | 127 kts | 231° |
| 2026-05-05 11:07 | 46.43463 | 30.69410 | 2998 ft | 132 kts | 200° |
| 2026-05-05 11:07 | 46.42544 | 30.68859 | 3024 ft | 151 kts | 204° |
| 2026-05-05 11:08 | 46.41550 | 30.68227 | 3032 ft | 161 kts | 202° |
| 2026-05-05 11:08 | 46.40502 | 30.67582 | 3041 ft | 166 kts | 202° |
| 2026-05-05 11:08 | 46.39432 | 30.66931 | 3039 ft | 168 kts | 202° |
| 2026-05-05 11:08 | 46.38354 | 30.66274 | 3034 ft | 168 kts | 202° |
| 2026-05-05 11:09 | 46.37284 | 30.65622 | 3032 ft | 166 kts | 202° |
| 2026-05-05 11:09 | 46.36231 | 30.64982 | 3026 ft | 163 kts | 201° |
| 2026-05-05 11:09 | 46.35186 | 30.64346 | 3017 ft | 162 kts | 201° |
| 2026-05-05 11:09 | 46.34158 | 30.63722 | 3013 ft | 159 kts | 202° |
| 2026-05-05 11:10 | 46.33141 | 30.63104 | 3019 ft | 158 kts | 201° |
| 2026-05-05 11:10 | 46.32123 | 30.62490 | 3017 ft | 159 kts | 202° |
| 2026-05-05 11:10 | 46.31097 | 30.61863 | 3015 ft | 161 kts | 202° |
| 2026-05-05 11:10 | 46.30066 | 30.61240 | 3017 ft | 160 kts | 201° |
| 2026-05-05 11:11 | 46.29040 | 30.60620 | 3009 ft | 161 kts | 202° |
| 2026-05-05 11:11 | 46.28003 | 30.59985 | 3006 ft | 163 kts | 201° |
| 2026-05-05 11:11 | 46.26958 | 30.59362 | 3012 ft | 163 kts | 201° |
| 2026-05-05 11:11 | 46.25918 | 30.58724 | 3010 ft | 165 kts | 202° |
| 2026-05-05 11:12 | 46.24848 | 30.58075 | 3013 ft | 165 kts | 202° |
| 2026-05-05 11:12 | 46.23809 | 30.57447 | 3019 ft | 163 kts | 201° |
| 2026-05-05 11:12 | 46.22767 | 30.56818 | 3019 ft | 162 kts | 201° |
| 2026-05-05 11:12 | 46.21715 | 30.56181 | 3016 ft | 166 kts | 202° |
| 2026-05-05 11:13 | 46.20653 | 30.55535 | 3011 ft | 166 kts | 201° |
| 2026-05-05 11:13 | 46.19590 | 30.54896 | 3018 ft | 165 kts | 201° |
| 2026-05-05 11:13 | 46.18534 | 30.54257 | 3011 ft | 165 kts | 201° |
| 2026-05-05 11:13 | 46.17481 | 30.53622 | 3018 ft | 164 kts | 201° |
| 2026-05-05 11:14 | 46.16424 | 30.52984 | 3015 ft | 164 kts | 201° |
| 2026-05-05 11:14 | 46.15384 | 30.52356 | 3018 ft | 161 kts | 201° |
| 2026-05-05 11:14 | 46.14333 | 30.51723 | 3016 ft | 166 kts | 201° |
| 2026-05-05 11:14 | 46.13267 | 30.51082 | 3022 ft | 166 kts | 201° |
| 2026-05-05 11:15 | 46.12189 | 30.50417 | 3010 ft | 168 kts | 201° |
| 2026-05-05 11:15 | 46.11121 | 30.49782 | 3013 ft | 164 kts | 200° |
| 2026-05-05 11:15 | 46.10069 | 30.49155 | 3016 ft | 164 kts | 201° |
| 2026-05-05 11:15 | 46.08996 | 30.48495 | 3025 ft | 171 kts | 200° |
| 2026-05-05 11:16 | 46.07890 | 30.47853 | 3024 ft | 173 kts | 200° |
| 2026-05-05 11:16 | 46.06790 | 30.47196 | 3021 ft | 169 kts | 201° |
| 2026-05-05 11:16 | 46.05716 | 30.46539 | 3020 ft | 166 kts | 201° |
| 2026-05-05 11:16 | 46.04654 | 30.45901 | 3016 ft | 165 kts | 201° |
| 2026-05-05 11:17 | 46.03600 | 30.45267 | 3010 ft | 164 kts | 201° |
| 2026-05-05 11:17 | 46.02543 | 30.44634 | 3003 ft | 164 kts | 201° |
| 2026-05-05 11:17 | 46.01509 | 30.44012 | 3007 ft | 163 kts | 201° |
| 2026-05-05 11:17 | 46.00460 | 30.43385 | 2999 ft | 163 kts | 201° |
| 2026-05-05 11:18 | 45.99414 | 30.42757 | 3009 ft | 162 kts | 201° |
| 2026-05-05 11:18 | 45.98372 | 30.42134 | 3002 ft | 162 kts | 201° |
| 2026-05-05 11:18 | 45.97337 | 30.41512 | 3009 ft | 162 kts | 201° |
| 2026-05-05 11:18 | 45.96295 | 30.40890 | 3001 ft | 162 kts | 201° |
| 2026-05-05 11:19 | 45.95257 | 30.40268 | 3005 ft | 161 kts | 201° |
| 2026-05-05 11:19 | 45.94222 | 30.39650 | 2998 ft | 161 kts | 201° |
| 2026-05-05 11:19 | 45.93187 | 30.39030 | 3008 ft | 161 kts | 201° |
| 2026-05-05 11:19 | 45.92150 | 30.38412 | 3008 ft | 161 kts | 201° |
| 2026-05-05 11:20 | 45.91109 | 30.37788 | 3008 ft | 163 kts | 201° |
| 2026-05-05 11:20 | 45.90064 | 30.37164 | 3008 ft | 162 kts | 201° |
| 2026-05-05 11:20 | 45.89023 | 30.36539 | 3008 ft | 161 kts | 203° |
| 2026-05-05 11:20 | 45.88286 | 30.35385 | 2997 ft | 160 kts | 250° |
| 2026-05-05 11:21 | 45.87980 | 30.33859 | 2998 ft | 160 kts | 255° |
| 2026-05-05 11:21 | 45.87657 | 30.32325 | 3004 ft | 162 kts | 255° |
| 2026-05-05 11:21 | 45.87336 | 30.30778 | 3012 ft | 162 kts | 254° |
| 2026-05-05 11:21 | 45.87014 | 30.29224 | 3017 ft | 163 kts | 255° |
| 2026-05-05 11:22 | 45.86692 | 30.27671 | 3020 ft | 162 kts | 255° |
| 2026-05-05 11:22 | 45.86366 | 30.26127 | 3022 ft | 161 kts | 251° |
| 2026-05-05 11:22 | 45.85823 | 30.24727 | 3014 ft | 160 kts | 237° |
| 2026-05-05 11:22 | 45.85247 | 30.23352 | 3008 ft | 161 kts | 242° |
| 2026-05-05 11:23 | 45.84721 | 30.21930 | 3013 ft | 162 kts | 243° |
| 2026-05-05 11:23 | 45.84201 | 30.20499 | 3013 ft | 162 kts | 243° |
| 2026-05-05 11:23 | 45.83683 | 30.19062 | 3013 ft | 162 kts | 243° |
| 2026-05-05 11:23 | 45.83163 | 30.17628 | 3017 ft | 162 kts | 243° |
| 2026-05-05 11:24 | 45.82644 | 30.16190 | 3021 ft | 163 kts | 243° |
| 2026-05-05 11:24 | 45.82129 | 30.14772 | 3021 ft | 162 kts | 243° |
| 2026-05-05 11:24 | 45.81609 | 30.13334 | 3023 ft | 162 kts | 243° |
| 2026-05-05 11:24 | 45.81087 | 30.11899 | 3022 ft | 162 kts | 243° |
| 2026-05-05 11:25 | 45.80553 | 30.10447 | 3016 ft | 168 kts | 243° |
| 2026-05-05 11:25 | 45.80021 | 30.08952 | 3020 ft | 167 kts | 244° |
| 2026-05-05 11:25 | 45.79489 | 30.07486 | 3021 ft | 165 kts | 242° |
| 2026-05-05 11:25 | 45.78957 | 30.06029 | 3019 ft | 165 kts | 243° |
| 2026-05-05 11:26 | 45.78430 | 30.04582 | 3022 ft | 163 kts | 243° |
| 2026-05-05 11:26 | 45.77904 | 30.03135 | 3021 ft | 163 kts | 243° |
| 2026-05-05 11:26 | 45.77381 | 30.01699 | 3024 ft | 163 kts | 243° |
| 2026-05-05 11:26 | 45.76856 | 30.00258 | 3021 ft | 164 kts | 243° |
| 2026-05-05 11:27 | 45.76329 | 29.98809 | 3023 ft | 164 kts | 243° |
| 2026-05-05 11:27 | 45.75799 | 29.97359 | 3007 ft | 164 kts | 242° |
| 2026-05-05 11:27 | 45.75274 | 29.95917 | 3008 ft | 163 kts | 243° |
| 2026-05-05 11:27 | 45.74748 | 29.94477 | 3006 ft | 163 kts | 243° |
| 2026-05-05 11:28 | 45.74223 | 29.93041 | 3027 ft | 164 kts | 242° |
| 2026-05-05 11:28 | 45.73685 | 29.91572 | 3015 ft | 167 kts | 243° |
| 2026-05-05 11:28 | 45.73155 | 29.90115 | 3020 ft | 164 kts | 243° |
| 2026-05-05 11:28 | 45.72629 | 29.88680 | 3024 ft | 162 kts | 242° |
| 2026-05-05 11:29 | 45.72107 | 29.87253 | 3013 ft | 162 kts | 242° |
| 2026-05-05 11:29 | 45.71583 | 29.85823 | 3008 ft | 162 kts | 242° |
| 2026-05-05 11:29 | 45.71070 | 29.84419 | 3010 ft | 161 kts | 242° |
| 2026-05-05 11:29 | 45.70549 | 29.83001 | 3006 ft | 161 kts | 242° |
| 2026-05-05 11:30 | 45.70028 | 29.81578 | 3004 ft | 162 kts | 242° |
| 2026-05-05 11:30 | 45.69433 | 29.80227 | 2989 ft | 161 kts | 223° |
| 2026-05-05 11:30 | 45.68431 | 29.79615 | 2998 ft | 157 kts | 185° |
| 2026-05-05 11:30 | 45.67351 | 29.79634 | 3007 ft | 155 kts | 176° |
| 2026-05-05 11:31 | 45.66264 | 29.79657 | 3009 ft | 157 kts | 177° |
| 2026-05-05 11:31 | 45.65172 | 29.79671 | 3013 ft | 157 kts | 177° |
| 2026-05-05 11:31 | 45.64077 | 29.79688 | 3015 ft | 158 kts | 178° |
| 2026-05-05 11:31 | 45.62980 | 29.79701 | 3017 ft | 158 kts | 177° |
| 2026-05-05 11:32 | 45.61876 | 29.79713 | 3022 ft | 159 kts | 177° |
| 2026-05-05 11:32 | 45.60772 | 29.79731 | 3024 ft | 158 kts | 177° |
| 2026-05-05 11:32 | 45.59671 | 29.79748 | 3031 ft | 158 kts | 176° |
| 2026-05-05 11:32 | 45.58583 | 29.79763 | 3023 ft | 159 kts | 176° |
| 2026-05-05 11:33 | 45.57460 | 29.79780 | 3024 ft | 159 kts | 176° |
| 2026-05-05 11:33 | 45.56367 | 29.79796 | 3024 ft | 159 kts | 176° |
| 2026-05-05 11:33 | 45.55256 | 29.79811 | 3023 ft | 160 kts | 176° |
| 2026-05-05 11:33 | 45.54145 | 29.79827 | 3026 ft | 160 kts | 176° |
| 2026-05-05 11:34 | 45.53034 | 29.79843 | 3022 ft | 160 kts | 176° |
| 2026-05-05 11:34 | 45.51924 | 29.79859 | 3025 ft | 159 kts | 176° |
| 2026-05-05 11:34 | 45.50813 | 29.79876 | 3026 ft | 159 kts | 176° |
| 2026-05-05 11:34 | 45.49704 | 29.79891 | 3025 ft | 160 kts | 176° |
| 2026-05-05 11:35 | 45.48593 | 29.79907 | 3026 ft | 160 kts | 176° |
| 2026-05-05 11:35 | 45.47479 | 29.79922 | 3012 ft | 161 kts | 176° |
| 2026-05-05 11:35 | 45.46360 | 29.79937 | 3014 ft | 161 kts | 176° |
| 2026-05-05 11:35 | 45.45240 | 29.79956 | 3017 ft | 162 kts | 176° |
| 2026-05-05 11:36 | 45.44110 | 29.79973 | 3022 ft | 163 kts | 176° |
| 2026-05-05 11:36 | 45.42971 | 29.79985 | 3021 ft | 163 kts | 176° |
| 2026-05-05 11:36 | 45.41839 | 29.79999 | 3026 ft | 162 kts | 176° |
| 2026-05-05 11:36 | 45.40719 | 29.80020 | 3024 ft | 161 kts | 176° |
| 2026-05-05 11:37 | 45.39595 | 29.80037 | 3025 ft | 162 kts | 177° |
| 2026-05-05 11:37 | 45.38465 | 29.80053 | 3020 ft | 163 kts | 176° |
| 2026-05-05 11:37 | 45.37330 | 29.80065 | 3024 ft | 163 kts | 177° |
| 2026-05-05 11:37 | 45.36205 | 29.80083 | 3026 ft | 161 kts | 177° |
| 2026-05-05 11:38 | 45.35103 | 29.80098 | 3026 ft | 160 kts | 176° |
| 2026-05-05 11:38 | 45.33989 | 29.80116 | 3020 ft | 160 kts | 176° |
| 2026-05-05 11:38 | 45.32868 | 29.80134 | 3012 ft | 162 kts | 176° |
| 2026-05-05 11:38 | 45.31744 | 29.80147 | 3014 ft | 162 kts | 175° |
| 2026-05-05 11:39 | 45.30615 | 29.80161 | 3005 ft | 161 kts | 175° |
| 2026-05-05 11:39 | 45.29497 | 29.80179 | 3010 ft | 160 kts | 176° |
| 2026-05-05 11:39 | 45.28380 | 29.80195 | 3004 ft | 161 kts | 176° |
| 2026-05-05 11:39 | 45.27254 | 29.80208 | 3017 ft | 162 kts | 176° |
| 2026-05-05 11:40 | 45.26130 | 29.80227 | 3017 ft | 162 kts | 176° |
| 2026-05-05 11:40 | 45.25008 | 29.80242 | 3013 ft | 160 kts | 176° |
| 2026-05-05 11:40 | 45.23894 | 29.80261 | 3013 ft | 160 kts | 176° |
| 2026-05-05 11:40 | 45.22772 | 29.80275 | 3011 ft | 161 kts | 175° |
| 2026-05-05 11:41 | 45.21646 | 29.80293 | 3017 ft | 162 kts | 176° |
| 2026-05-05 11:41 | 45.20517 | 29.80305 | 3025 ft | 163 kts | 176° |
| 2026-05-05 11:41 | 45.19392 | 29.80284 | 3019 ft | 161 kts | 185° |
| 2026-05-05 11:41 | 45.18429 | 29.79495 | 3011 ft | 164 kts | 228° |
| 2026-05-05 11:42 | 45.17874 | 29.78097 | 3015 ft | 163 kts | 246° |
| 2026-05-05 11:42 | 45.17384 | 29.76643 | 3012 ft | 163 kts | 245° |
| 2026-05-05 11:42 | 45.16880 | 29.75198 | 2997 ft | 164 kts | 245° |
| 2026-05-05 11:42 | 45.16378 | 29.73762 | 3016 ft | 163 kts | 244° |
| 2026-05-05 11:43 | 45.15873 | 29.72314 | 3016 ft | 166 kts | 244° |
| 2026-05-05 11:43 | 45.15364 | 29.70854 | 3021 ft | 165 kts | 244° |
| 2026-05-05 11:43 | 45.14863 | 29.69421 | 3026 ft | 163 kts | 244° |
| 2026-05-05 11:43 | 45.14360 | 29.67989 | 3024 ft | 165 kts | 244° |
| 2026-05-05 11:44 | 45.13852 | 29.66523 | 3021 ft | 165 kts | 244° |
| 2026-05-05 11:44 | 45.13345 | 29.65074 | 3025 ft | 165 kts | 244° |
| 2026-05-05 11:44 | 45.12836 | 29.63622 | 3030 ft | 165 kts | 244° |
| 2026-05-05 11:44 | 45.12328 | 29.62166 | 3028 ft | 165 kts | 245° |
| 2026-05-05 11:45 | 45.11808 | 29.60686 | 3014 ft | 168 kts | 244° |
| 2026-05-05 11:45 | 45.11294 | 29.59215 | 3018 ft | 166 kts | 244° |
| 2026-05-05 11:45 | 45.10780 | 29.57757 | 3018 ft | 163 kts | 244° |
| 2026-05-05 11:45 | 45.10275 | 29.56325 | 3020 ft | 164 kts | 244° |
| 2026-05-05 11:46 | 45.09768 | 29.54880 | 3015 ft | 163 kts | 243° |
| 2026-05-05 11:46 | 45.09257 | 29.53433 | 3003 ft | 165 kts | 243° |
| 2026-05-05 11:46 | 45.08745 | 29.51970 | 2998 ft | 167 kts | 243° |
| 2026-05-05 11:46 | 45.08229 | 29.50505 | 3004 ft | 166 kts | 244° |
| 2026-05-05 11:47 | 45.07716 | 29.49045 | 3014 ft | 165 kts | 243° |
| 2026-05-05 11:47 | 45.07203 | 29.47587 | 3020 ft | 166 kts | 243° |
| 2026-05-05 11:47 | 45.06680 | 29.46111 | 3021 ft | 170 kts | 243° |
| 2026-05-05 11:47 | 45.06159 | 29.44609 | 3014 ft | 170 kts | 243° |
| 2026-05-05 11:48 | 45.05111 | 29.41656 | 3016 ft | 167 kts | 243° |
| 2026-05-05 11:48 | 45.04599 | 29.40199 | 3019 ft | 166 kts | 243° |
| 2026-05-05 11:48 | 45.04087 | 29.38759 | 3016 ft | 166 kts | 243° |
| 2026-05-05 11:49 | 45.03572 | 29.37297 | 3012 ft | 167 kts | 243° |
| 2026-05-05 11:49 | 45.03050 | 29.35824 | 3012 ft | 168 kts | 243° |
| 2026-05-05 11:49 | 45.02530 | 29.34346 | 2996 ft | 167 kts | 243° |
| 2026-05-05 11:49 | 45.02008 | 29.32884 | 3000 ft | 167 kts | 243° |
| 2026-05-05 11:50 | 45.01487 | 29.31419 | 3006 ft | 166 kts | 242° |
| 2026-05-05 11:50 | 45.00970 | 29.29959 | 3010 ft | 167 kts | 243° |
| 2026-05-05 11:50 | 45.00448 | 29.28483 | 3006 ft | 168 kts | 243° |
| 2026-05-05 11:50 | 44.99923 | 29.27006 | 3015 ft | 168 kts | 243° |
| 2026-05-05 11:51 | 44.99397 | 29.25522 | 3018 ft | 169 kts | 243° |
| 2026-05-05 11:51 | 44.98867 | 29.24041 | 3014 ft | 170 kts | 243° |
| 2026-05-05 11:51 | 44.98340 | 29.22546 | 3008 ft | 168 kts | 243° |
| 2026-05-05 11:51 | 44.97728 | 29.21189 | 2995 ft | 162 kts | 224° |
| 2026-05-05 11:52 | 44.97181 | 29.20493 | 3003 ft | 159 kts | 220° |
| 2026-05-05 11:52 | 44.96093 | 29.19069 | 3007 ft | 162 kts | 222° |
| 2026-05-05 11:52 | 44.95549 | 29.18330 | 3003 ft | 165 kts | 222° |
| 2026-05-05 11:52 | 44.94447 | 29.16850 | 3002 ft | 164 kts | 222° |
| 2026-05-05 11:53 | 44.93625 | 29.15742 | 3009 ft | 163 kts | 223° |
| 2026-05-05 11:53 | 44.92803 | 29.14636 | 3018 ft | 163 kts | 222° |
| 2026-05-05 11:53 | 44.92254 | 29.13900 | 3013 ft | 164 kts | 223° |
| 2026-05-05 11:53 | 44.91430 | 29.12789 | 3017 ft | 163 kts | 222° |
| 2026-05-05 11:54 | 44.90609 | 29.11688 | 3015 ft | 163 kts | 222° |
| 2026-05-05 11:54 | 44.89785 | 29.10581 | 3014 ft | 164 kts | 222° |
| 2026-05-05 11:54 | 44.88957 | 29.09474 | 3010 ft | 164 kts | 221° |
| 2026-05-05 11:54 | 44.88127 | 29.08354 | 3015 ft | 166 kts | 221° |
| 2026-05-05 11:55 | 44.87290 | 29.07237 | 3014 ft | 165 kts | 222° |
| 2026-05-05 11:55 | 44.86466 | 29.06131 | 3017 ft | 162 kts | 222° |
| 2026-05-05 11:55 | 44.85646 | 29.05037 | 3013 ft | 163 kts | 221° |
| 2026-05-05 11:55 | 44.84814 | 29.03921 | 3007 ft | 166 kts | 221° |
| 2026-05-05 11:56 | 44.83980 | 29.02806 | 3012 ft | 163 kts | 222° |
| 2026-05-05 11:56 | 44.83160 | 29.01704 | 3008 ft | 163 kts | 221° |
| 2026-05-05 11:56 | 44.82337 | 29.00607 | 2996 ft | 163 kts | 221° |
| 2026-05-05 11:56 | 44.81511 | 28.99503 | 2999 ft | 165 kts | 224° |
| 2026-05-05 11:57 | 44.80683 | 28.98395 | 3007 ft | 163 kts | 224° |
| 2026-05-05 11:57 | 44.79859 | 28.97296 | 3008 ft | 163 kts | 224° |
| 2026-05-05 11:57 | 44.79034 | 28.96194 | 2997 ft | 165 kts | 224° |
| 2026-05-05 11:57 | 44.78199 | 28.95079 | 2992 ft | 166 kts | 223° |
| 2026-05-05 11:58 | 44.77366 | 28.93968 | 3008 ft | 165 kts | 224° |
| 2026-05-05 11:58 | 44.76536 | 28.92862 | 3008 ft | 165 kts | 224° |
| 2026-05-05 11:58 | 44.75750 | 28.91696 | 3006 ft | 162 kts | 233° |
| 2026-05-05 11:58 | 44.75062 | 28.90435 | 3009 ft | 162 kts | 232° |
| 2026-05-05 11:59 | 44.74361 | 28.89192 | 3006 ft | 162 kts | 232° |
| 2026-05-05 11:59 | 44.73670 | 28.87964 | 3001 ft | 163 kts | 233° |
| 2026-05-05 11:59 | 44.72968 | 28.86708 | 2995 ft | 164 kts | 232° |
| 2026-05-05 11:59 | 44.72261 | 28.85451 | 3000 ft | 163 kts | 232° |
| 2026-05-05 12:00 | 44.71560 | 28.84199 | 3005 ft | 163 kts | 232° |
| 2026-05-05 12:00 | 44.70855 | 28.82949 | 3005 ft | 163 kts | 233° |
| 2026-05-05 12:00 | 44.70151 | 28.81691 | 3006 ft | 165 kts | 232° |
| 2026-05-05 12:00 | 44.69437 | 28.80423 | 3001 ft | 166 kts | 233° |
| 2026-05-05 12:01 | 44.68711 | 28.79127 | 3006 ft | 167 kts | 232° |
| 2026-05-05 12:01 | 44.68004 | 28.77871 | 3008 ft | 165 kts | 232° |
| 2026-05-05 12:01 | 44.67295 | 28.76608 | 3013 ft | 164 kts | 233° |
| 2026-05-05 12:01 | 44.66584 | 28.75336 | 3018 ft | 166 kts | 233° |
| 2026-05-05 12:02 | 44.65870 | 28.74060 | 3022 ft | 165 kts | 230° |
| 2026-05-05 12:02 | 44.65156 | 28.72814 | 3019 ft | 162 kts | 230° |
| 2026-05-05 12:02 | 44.64463 | 28.71580 | 3019 ft | 160 kts | 230° |
| 2026-05-05 12:02 | 44.63770 | 28.70349 | 3015 ft | 161 kts | 230° |
| 2026-05-05 12:03 | 44.63075 | 28.69122 | 3019 ft | 160 kts | 230° |
| 2026-05-05 12:03 | 44.62384 | 28.67900 | 3013 ft | 159 kts | 230° |
| 2026-05-05 12:03 | 44.61697 | 28.66683 | 3014 ft | 160 kts | 230° |
| 2026-05-05 12:03 | 44.61010 | 28.65469 | 3011 ft | 157 kts | 230° |
| 2026-05-05 12:04 | 44.60333 | 28.64271 | 3003 ft | 156 kts | 231° |
| 2026-05-05 12:04 | 44.59665 | 28.63083 | 3004 ft | 155 kts | 230° |
| 2026-05-05 12:04 | 44.58999 | 28.61894 | 3002 ft | 155 kts | 230° |
| 2026-05-05 12:04 | 44.58320 | 28.60708 | 2995 ft | 157 kts | 230° |
| 2026-05-05 12:05 | 44.57647 | 28.59519 | 3007 ft | 158 kts | 230° |
| 2026-05-05 12:05 | 44.56962 | 28.58308 | 2991 ft | 158 kts | 230° |
| 2026-05-05 12:05 | 44.56287 | 28.57120 | 3011 ft | 156 kts | 230° |
| 2026-05-05 12:05 | 44.55500 | 28.56100 | 2993 ft | 154 kts | 201° |
| 2026-05-05 12:06 | 44.54484 | 28.55744 | 3004 ft | 151 kts | 192° |
| 2026-05-05 12:06 | 44.53455 | 28.55350 | 2992 ft | 155 kts | 193° |
| 2026-05-05 12:06 | 44.52395 | 28.54945 | 2927 ft | 160 kts | 193° |
| 2026-05-05 12:06 | 44.51325 | 28.54534 | 2872 ft | 160 kts | 193° |
| 2026-05-05 12:07 | 44.50237 | 28.54119 | 2819 ft | 162 kts | 194° |
| 2026-05-05 12:07 | 44.49148 | 28.53710 | 2762 ft | 163 kts | 193° |
| 2026-05-05 12:07 | 44.48051 | 28.53291 | 2627 ft | 162 kts | 194° |
| 2026-05-05 12:07 | 44.47075 | 28.52920 | 2388 ft | 135 kts | 193° |
| 2026-05-05 12:08 | 44.46209 | 28.52590 | 2092 ft | 124 kts | 192° |
| 2026-05-05 12:08 | 44.45394 | 28.52287 | 1789 ft | 117 kts | 189° |
| 2026-05-05 12:08 | 44.44715 | 28.51650 | 1424 ft | 132 kts | 226° |
| 2026-05-05 12:08 | 44.44248 | 28.50789 | 1381 ft | 100 kts | 228° |
| 2026-05-05 12:09 | 44.43774 | 28.50203 | 1324 ft | 82 kts | 205° |
| 2026-05-05 12:09 | 44.43295 | 28.49878 | 1273 ft | 78 kts | 195° |
| 2026-05-05 12:09 | 44.42774 | 28.49637 | 1238 ft | 78 kts | 184° |
| 2026-05-05 12:09 | 44.42206 | 28.49522 | 1239 ft | 86 kts | 181° |
| 2026-05-05 12:10 | 44.41611 | 28.49454 | 1274 ft | 86 kts | 177° |
| 2026-05-05 12:10 | 44.40996 | 28.49356 | 1176 ft | 90 kts | 178° |
| 2026-05-05 12:10 | 44.40373 | 28.49321 | 1048 ft | 89 kts | 175° |
| 2026-05-05 12:10 | 44.39760 | 28.49276 | 884 ft | 90 kts | 176° |
| 2026-05-05 12:11 | 44.39128 | 28.49235 | 714 ft | 91 kts | 176° |
| 2026-05-05 12:11 | 44.38520 | 28.49158 | 560 ft | 83 kts | 180° |
| 2026-05-05 12:11 | 44.38019 | 28.49077 | 435 ft | 66 kts | 175° |
| 2026-05-05 12:11 | 44.37522 | 28.49022 | 361 ft | 68 kts | 175° |
| 2026-05-05 12:12 | 44.37211 | 28.48987 | 343 ft | 23 kts | 185° |
| 2026-05-05 12:12 | 44.37031 | 28.48959 | 341 ft | 25 kts | 184° |
| 2026-05-05 12:12 | 44.36902 | 28.48942 | 337 ft | 14 kts | 188° |
| 2026-05-05 12:12 | 44.36796 | 28.48927 | 336 ft | 17 kts | 184° |
| 2026-05-05 12:13 | 44.36665 | 28.48913 | 332 ft | 20 kts | 185° |
| 2026-05-05 12:13 | 44.36526 | 28.48888 | 330 ft | 21 kts | 181° |
| 2026-05-05 12:13 | 44.36389 | 28.48858 | 328 ft | 15 kts | 230° |
| 2026-05-05 12:13 | 44.36383 | 28.48698 | 331 ft | 19 kts | 274° |
| 2026-05-05 12:14 | 44.36390 | 28.48612 | 330 ft | 0 kts | 279° |